CFE4454 EGLC-EHRD
Flight info
| Callsign | CFE4454 |
|---|---|
| Flight time | 0h 35m |
| Altitude | 21000 |
| Route | ODUKU M84 CLN P44 RATLO M197 REDFA |
| Aircraft | E190/M-SDE2E3GHIJ1LORVWXY/SB1 |
Departure
| Time | 2026-05-04 17:24 |
|---|---|
| Airport | London City Airport (EGLC) |
Arrival
| Time | 2026-05-04 17:59 |
|---|---|
| Airport | Rotterdam The Hague Airport (EHRD) |
| Time | Latitude | Longitude | Altitude | Speed | Heading |
|---|---|---|---|---|---|
| 2026-05-04 17:15 | 51.50410 | 0.05132 | 24 ft | 0 kts | 329° |
| 2026-05-04 17:21 | 51.50415 | 0.05132 | 24 ft | 1 kts | 347° |
| 2026-05-04 17:21 | 51.50451 | 0.05118 | 24 ft | 3 kts | 305° |
| 2026-05-04 17:22 | 51.50454 | 0.05079 | 24 ft | 6 kts | 278° |
| 2026-05-04 17:22 | 51.50462 | 0.05006 | 26 ft | 0 kts | 271° |
| 2026-05-04 17:23 | 51.50470 | 0.04722 | 24 ft | 11 kts | 272° |
| 2026-05-04 17:23 | 51.50474 | 0.04589 | 24 ft | 13 kts | 275° |
| 2026-05-04 17:23 | 51.50549 | 0.04593 | 24 ft | 11 kts | 78° |
| 2026-05-04 17:24 | 51.50542 | 0.04941 | 24 ft | 60 kts | 93° |
| 2026-05-04 17:24 | 51.50320 | 0.09734 | 1760 ft | 180 kts | 77° |
| 2026-05-04 17:25 | 51.50962 | 0.11444 | 2595 ft | 181 kts | 34° |
| 2026-05-04 17:25 | 51.52884 | 0.13820 | 3559 ft | 165 kts | 46° |
| 2026-05-04 17:26 | 51.54917 | 0.16715 | 4201 ft | 222 kts | 43° |
| 2026-05-04 17:26 | 51.57662 | 0.23646 | 5803 ft | 272 kts | 63° |
| 2026-05-04 17:27 | 51.59367 | 0.29259 | 7214 ft | 285 kts | 64° |
| 2026-05-04 17:27 | 51.61119 | 0.35041 | 8677 ft | 292 kts | 64° |
| 2026-05-04 17:28 | 51.62918 | 0.41001 | 10112 ft | 302 kts | 64° |
| 2026-05-04 17:29 | 51.65824 | 0.50661 | 11952 ft | 325 kts | 64° |
| 2026-05-04 17:29 | 51.68806 | 0.60593 | 14117 ft | 332 kts | 64° |
| 2026-05-04 17:30 | 51.71866 | 0.70848 | 15875 ft | 345 kts | 65° |
| 2026-05-04 17:31 | 51.73954 | 0.77861 | 17032 ft | 353 kts | 65° |
| 2026-05-04 17:31 | 51.77186 | 0.88746 | 18808 ft | 364 kts | 66° |
| 2026-05-04 17:32 | 51.79384 | 0.96184 | 19945 ft | 370 kts | 66° |
| 2026-05-04 17:33 | 51.82717 | 1.07491 | 20931 ft | 361 kts | 66° |
| 2026-05-04 17:33 | 51.83852 | 1.11226 | 20992 ft | 378 kts | 65° |
| 2026-05-04 17:34 | 51.87074 | 1.22990 | 21012 ft | 381 kts | 68° |
| 2026-05-04 17:34 | 51.88132 | 1.26919 | 21014 ft | 381 kts | 68° |
| 2026-05-04 17:35 | 51.91300 | 1.38725 | 21016 ft | 381 kts | 68° |
| 2026-05-04 17:35 | 51.93404 | 1.46596 | 21010 ft | 381 kts | 68° |
| 2026-05-04 17:35 | 51.94457 | 1.50552 | 21017 ft | 383 kts | 68° |
| 2026-05-04 17:36 | 51.95511 | 1.54510 | 21023 ft | 383 kts | 68° |
| 2026-05-04 17:36 | 51.96562 | 1.58467 | 21015 ft | 382 kts | 68° |
| 2026-05-04 17:36 | 51.97610 | 1.62434 | 21011 ft | 382 kts | 69° |
| 2026-05-04 17:36 | 51.98587 | 1.66439 | 21017 ft | 382 kts | 70° |
| 2026-05-04 17:37 | 51.99458 | 1.70508 | 21018 ft | 382 kts | 76° |
| 2026-05-04 17:37 | 52.00138 | 1.74666 | 21021 ft | 380 kts | 76° |
| 2026-05-04 17:37 | 52.00806 | 1.78819 | 21019 ft | 381 kts | 77° |
| 2026-05-04 17:37 | 52.01453 | 1.82995 | 21019 ft | 381 kts | 77° |
| 2026-05-04 17:38 | 52.02098 | 1.87161 | 21021 ft | 381 kts | 77° |
| 2026-05-04 17:38 | 52.02743 | 1.91338 | 21019 ft | 382 kts | 77° |
| 2026-05-04 17:38 | 52.03384 | 1.95512 | 21021 ft | 382 kts | 77° |
| 2026-05-04 17:38 | 52.04031 | 1.99708 | 21012 ft | 384 kts | 77° |
| 2026-05-04 17:39 | 52.05316 | 2.08097 | 21011 ft | 383 kts | 77° |
| 2026-05-04 17:39 | 52.05948 | 2.12237 | 21013 ft | 383 kts | 77° |
| 2026-05-04 17:39 | 52.06586 | 2.16435 | 21011 ft | 382 kts | 77° |
| 2026-05-04 17:40 | 52.07225 | 2.20633 | 21011 ft | 384 kts | 77° |
| 2026-05-04 17:40 | 52.07863 | 2.24843 | 21020 ft | 383 kts | 77° |
| 2026-05-04 17:40 | 52.08497 | 2.29043 | 21018 ft | 383 kts | 77° |
| 2026-05-04 17:40 | 52.09131 | 2.33249 | 21013 ft | 383 kts | 77° |
| 2026-05-04 17:41 | 52.09762 | 2.37449 | 21016 ft | 382 kts | 77° |
| 2026-05-04 17:41 | 52.10393 | 2.41656 | 21014 ft | 383 kts | 77° |
| 2026-05-04 17:41 | 52.10696 | 2.45926 | 20999 ft | 380 kts | 96° |
| 2026-05-04 17:41 | 52.10220 | 2.50130 | 21016 ft | 379 kts | 107° |
| 2026-05-04 17:42 | 52.09477 | 2.54232 | 21027 ft | 379 kts | 110° |
| 2026-05-04 17:42 | 52.08654 | 2.58291 | 21016 ft | 377 kts | 111° |
| 2026-05-04 17:42 | 52.07685 | 2.62240 | 21005 ft | 376 kts | 116° |
| 2026-05-04 17:42 | 52.06625 | 2.66127 | 21014 ft | 376 kts | 116° |
| 2026-05-04 17:43 | 52.05547 | 2.70001 | 21015 ft | 376 kts | 117° |
| 2026-05-04 17:43 | 52.04462 | 2.73868 | 21012 ft | 376 kts | 117° |
| 2026-05-04 17:43 | 52.03375 | 2.77728 | 21010 ft | 376 kts | 117° |
| 2026-05-04 17:43 | 52.02288 | 2.81586 | 21015 ft | 375 kts | 117° |
| 2026-05-04 17:44 | 52.01202 | 2.85444 | 21012 ft | 376 kts | 117° |
| 2026-05-04 17:44 | 52.00117 | 2.89289 | 21014 ft | 375 kts | 117° |
| 2026-05-04 17:44 | 51.99029 | 2.93120 | 21008 ft | 373 kts | 117° |
| 2026-05-04 17:44 | 51.97939 | 2.96968 | 21014 ft | 375 kts | 116° |
| 2026-05-04 17:45 | 51.96854 | 3.00802 | 21015 ft | 376 kts | 116° |
| 2026-05-04 17:45 | 51.95763 | 3.04646 | 21006 ft | 375 kts | 117° |
| 2026-05-04 17:45 | 51.94680 | 3.08453 | 21012 ft | 377 kts | 116° |
| 2026-05-04 17:45 | 51.93566 | 3.12340 | 21016 ft | 376 kts | 117° |
| 2026-05-04 17:46 | 51.92475 | 3.16169 | 21021 ft | 376 kts | 116° |
| 2026-05-04 17:46 | 51.91397 | 3.19953 | 21015 ft | 376 kts | 116° |
| 2026-05-04 17:46 | 51.90295 | 3.23784 | 21020 ft | 375 kts | 117° |
| 2026-05-04 17:46 | 51.89193 | 3.27626 | 21020 ft | 375 kts | 116° |
| 2026-05-04 17:47 | 51.88093 | 3.31452 | 21008 ft | 375 kts | 117° |
| 2026-05-04 17:47 | 51.86998 | 3.35253 | 21005 ft | 374 kts | 117° |
| 2026-05-04 17:47 | 51.85897 | 3.39082 | 21008 ft | 374 kts | 117° |
| 2026-05-04 17:47 | 51.84786 | 3.42918 | 21004 ft | 378 kts | 116° |
| 2026-05-04 17:48 | 51.83675 | 3.46753 | 21009 ft | 376 kts | 117° |
| 2026-05-04 17:48 | 51.82565 | 3.50587 | 20995 ft | 376 kts | 117° |
| 2026-05-04 17:48 | 51.81476 | 3.54437 | 20996 ft | 379 kts | 112° |
| 2026-05-04 17:48 | 51.80928 | 3.58575 | 20432 ft | 381 kts | 92° |
| 2026-05-04 17:49 | 51.81108 | 3.62849 | 19509 ft | 385 kts | 82° |
| 2026-05-04 17:49 | 51.81549 | 3.67087 | 18874 ft | 380 kts | 77° |
| 2026-05-04 17:49 | 51.82285 | 3.71159 | 18214 ft | 376 kts | 73° |
| 2026-05-04 17:49 | 51.83049 | 3.75152 | 17680 ft | 366 kts | 72° |
| 2026-05-04 17:50 | 51.83828 | 3.79053 | 17282 ft | 364 kts | 72° |
| 2026-05-04 17:50 | 51.84340 | 3.81629 | 17005 ft | 364 kts | 72° |
| 2026-05-04 17:50 | 51.85068 | 3.85486 | 16283 ft | 356 kts | 76° |
| 2026-05-04 17:50 | 51.85578 | 3.89419 | 15507 ft | 357 kts | 79° |
| 2026-05-04 17:51 | 51.85963 | 3.93256 | 14749 ft | 334 kts | 82° |
| 2026-05-04 17:51 | 51.86139 | 3.96893 | 13985 ft | 316 kts | 88° |
| 2026-05-04 17:51 | 51.86209 | 4.00360 | 13183 ft | 302 kts | 88° |
| 2026-05-04 17:51 | 51.86260 | 4.03700 | 12372 ft | 292 kts | 89° |
| 2026-05-04 17:52 | 51.86298 | 4.06929 | 11595 ft | 283 kts | 89° |
| 2026-05-04 17:52 | 51.86333 | 4.10069 | 10832 ft | 276 kts | 89° |
| 2026-05-04 17:52 | 51.86369 | 4.13141 | 10093 ft | 270 kts | 89° |
| 2026-05-04 17:52 | 51.86406 | 4.16149 | 9313 ft | 265 kts | 88° |
| 2026-05-04 17:53 | 51.86639 | 4.19085 | 8523 ft | 261 kts | 77° |
| 2026-05-04 17:53 | 51.87159 | 4.21875 | 7755 ft | 257 kts | 69° |
| 2026-05-04 17:53 | 51.87901 | 4.24487 | 6944 ft | 256 kts | 58° |
| 2026-05-04 17:53 | 51.88840 | 4.26929 | 6139 ft | 254 kts | 57° |
| 2026-05-04 17:54 | 51.89802 | 4.29319 | 5151 ft | 254 kts | 53° |
| 2026-05-04 17:54 | 51.91184 | 4.31222 | 3568 ft | 273 kts | 24° |
| 2026-05-04 17:54 | 51.93032 | 4.31677 | 2768 ft | 262 kts | 351° |
| 2026-05-04 17:54 | 51.94544 | 4.30538 | 2768 ft | 225 kts | 317° |
| 2026-05-04 17:55 | 51.95352 | 4.28502 | 2274 ft | 221 kts | 285° |
| 2026-05-04 17:55 | 51.95283 | 4.26019 | 1811 ft | 233 kts | 250° |
| 2026-05-04 17:55 | 51.94341 | 4.23545 | 1908 ft | 272 kts | 227° |
| 2026-05-04 17:55 | 51.92878 | 4.21755 | 1831 ft | 262 kts | 204° |
| 2026-05-04 17:56 | 51.91141 | 4.21255 | 2583 ft | 260 kts | 172° |
| 2026-05-04 17:56 | 51.89493 | 4.22283 | 3170 ft | 262 kts | 143° |
| 2026-05-04 17:56 | 51.88256 | 4.24350 | 3192 ft | 249 kts | 119° |
| 2026-05-04 17:56 | 51.87866 | 4.26982 | 3023 ft | 233 kts | 74° |
| 2026-05-04 17:57 | 51.88658 | 4.29072 | 2889 ft | 219 kts | 37° |
| 2026-05-04 17:57 | 51.89853 | 4.30483 | 2789 ft | 208 kts | 39° |
| 2026-05-04 17:57 | 51.90923 | 4.32095 | 2526 ft | 210 kts | 46° |
| 2026-05-04 17:57 | 51.91788 | 4.33945 | 2074 ft | 201 kts | 58° |
| 2026-05-04 17:58 | 51.92504 | 4.35890 | 1424 ft | 197 kts | 57° |
| 2026-05-04 17:58 | 51.93179 | 4.37745 | 985 ft | 187 kts | 54° |
| 2026-05-04 17:58 | 51.93862 | 4.39489 | 741 ft | 179 kts | 54° |
| 2026-05-04 17:58 | 51.94525 | 4.41145 | 362 ft | 170 kts | 52° |
| 2026-05-04 17:59 | 51.95146 | 4.42685 | 88 ft | 154 kts | 52° |
| 2026-05-04 17:59 | 51.95695 | 4.44064 | -4 ft | 134 kts | 53° |
| 2026-05-04 17:59 | 51.96129 | 4.45127 | -6 ft | 22 kts | 61° |
| 2026-05-04 18:00 | 51.96140 | 4.45325 | -6 ft | 17 kts | 122° |
| 2026-05-04 18:00 | 51.96046 | 4.45392 | -6 ft | 13 kts | 210° |
| 2026-05-04 18:00 | 51.95996 | 4.45281 | -6 ft | 13 kts | 236° |
| 2026-05-04 18:00 | 51.95942 | 4.45151 | -6 ft | 15 kts | 236° |
| 2026-05-04 18:01 | 51.95881 | 4.44998 | -6 ft | 17 kts | 236° |
| 2026-05-04 18:01 | 51.95816 | 4.44833 | -6 ft | 18 kts | 240° |
| 2026-05-04 18:01 | 51.95744 | 4.44653 | -6 ft | 20 kts | 237° |
| 2026-05-04 18:02 | 51.95595 | 4.44284 | -6 ft | 20 kts | 237° |
| 2026-05-04 18:02 | 51.95516 | 4.44085 | -6 ft | 22 kts | 237° |
| 2026-05-04 18:02 | 51.95437 | 4.43887 | -6 ft | 16 kts | 237° |
| 2026-05-04 18:02 | 51.95384 | 4.43750 | -6 ft | 15 kts | 238° |
| 2026-05-04 18:03 | 51.95322 | 4.43600 | -6 ft | 17 kts | 237° |
| 2026-05-04 18:03 | 51.95235 | 4.43521 | -7 ft | 15 kts | 151° |
| 2026-05-04 18:03 | 51.95138 | 4.43621 | -7 ft | 17 kts | 153° |
| 2026-05-04 18:03 | 51.95086 | 4.43564 | -7 ft | 7 kts | 233° |
| 2026-05-04 18:04 | 51.95061 | 4.43489 | -7 ft | 7 kts | 257° |
| 2026-05-04 18:04 | 51.95075 | 4.43442 | -7 ft | 6 kts | 320° |
| 2026-05-04 18:04 | 51.95090 | 4.43427 | -7 ft | 0 kts | 326° |